ESGT/THN METAR and TAF weather

Enter ICAO airport designator
Station Type Date Time Source
ESGT METAR 2018/01/24 07:20 UTC NOAA

ESGT 240720Z 22012KT 9999 BKN011 06/05 Q1001


Station Type Date Time Source
ESGT Decoded METAR 2018/01/24 07:20 UTC NOAA

Trollhattan Private , Sweden (ESGT) 58-19N 012-21E
Jan 24, 2018 - 02:20 AM EST / 2018.01.24 0720 UTC
Wind: from the SW (220 degrees) at 14 MPH (12 KT):0
Visibility: greater than 7 mile(s):0
Sky conditions: mostly cloudy
Temperature: 42 F (6 C)
Dew Point: 41 F (5 C)
Relative Humidity: 93%
Pressure (altimeter): 29.56 in. Hg (1001 hPa)
ob: ESGT 240720Z 22012KT 9999 BKN011 06/05 Q1001
cycle: 7

Station Type Date Time Source
ESGT TAF 2016/08/12 05:58 UTC NOAA

TAF ESGT 120430Z 1205/1224 18007KT 9999 FEW030


Example: see airport list